Time;durP1;ratioP1;P1;durP2;ratioP2;P2;SDS_P1;SDS_P2;PMS_P1;PMS_P2;Temp;Humidity;BMP_temperature;BMP_pressure;BME280_temperature;BME280_humidity;BME280_pressure;Samples;Min_cycle;Max_cycle;Signal;HPM_P1;HPM_P2
2021/04/08 00:00:08;;;;;;;3.70;3.40;;;4.60;99.90;;;;;;5101840;27;20454;-52
2021/04/08 00:02:34;;;;;;;6.15;4.72;;;4.10;99.90;;;;;;5126984;27;20649;-53
2021/04/08 00:05:00;;;;;;;5.67;4.50;;;4.00;99.90;;;;;;5111000;27;20279;-53
2021/04/08 00:07:25;;;;;;;6.33;4.80;;;3.80;99.90;;;;;;5100435;27;20470;-53
2021/04/08 00:09:51;;;;;;;4.70;4.20;;;3.80;99.90;;;;;;5100489;28;20706;-53
2021/04/08 00:12:16;;;;;;;5.47;4.63;;;4.10;99.90;;;;;;5094659;27;20183;-51
2021/04/08 00:14:42;;;;;;;8.30;5.00;;;4.00;99.90;;;;;;5111374;27;20695;-51
2021/04/08 00:17:08;;;;;;;6.03;4.30;;;4.00;99.90;;;;;;5110899;27;20195;-51
2021/04/08 00:19:33;;;;;;;5.20;4.50;;;3.90;99.90;;;;;;5100415;28;20626;-51
2021/04/08 00:21:59;;;;;;;4.87;4.37;;;4.00;99.90;;;;;;5123246;27;20194;-51
2021/04/08 00:24:25;;;;;;;4.93;4.17;;;3.80;99.90;;;;;;5100397;28;20226;-51
2021/04/08 00:26:50;;;;;;;4.33;3.90;;;3.60;99.90;;;;;;5102420;28;20197;-51
2021/04/08 00:29:16;;;;;;;4.80;3.87;;;3.60;99.90;;;;;;5101584;27;20207;-52
2021/04/08 00:31:42;;;;;;;5.47;3.73;;;3.40;99.90;;;;;;5101855;27;20420;-52
2021/04/08 00:34:07;;;;;;;5.97;4.77;;;3.70;99.90;;;;;;5100003;28;20441;-52
2021/04/08 00:36:33;;;;;;;5.90;4.90;;;3.30;99.90;;;;;;5102565;27;20207;-52
2021/04/08 00:38:59;;;;;;;5.10;4.60;;;3.50;99.90;;;;;;5107227;28;20204;-52
2021/04/08 00:41:24;;;;;;;4.80;4.00;;;3.40;99.90;;;;;;5107636;27;20620;-52
2021/04/08 00:43:50;;;;;;;4.70;4.20;;;3.60;99.90;;;;;;5111459;27;20179;-52
2021/04/08 00:46:16;;;;;;;5.20;4.60;;;3.60;99.90;;;;;;5109680;27;20890;-51
2021/04/08 00:48:42;;;;;;;5.63;4.30;;;3.60;99.90;;;;;;5110483;28;20484;-52
2021/04/08 00:51:07;;;;;;;4.30;3.90;;;3.50;99.90;;;;;;5111879;27;20240;-52
2021/04/08 00:53:34;;;;;;;5.07;4.50;;;3.60;99.90;;;;;;5103017;28;20461;-51
2021/04/08 00:56:01;;;;;;;5.00;4.40;;;3.70;99.90;;;;;;5121936;28;20570;-52
2021/04/08 00:58:30;;;;;;;6.47;4.60;;;3.40;99.90;;;;;;5099704;28;20211;-52
2021/04/08 01:00:56;;;;;;;5.55;5.00;;;3.50;99.90;;;;;;5121262;28;20175;-52
2021/04/08 01:03:23;;;;;;;8.02;4.82;;;3.50;99.90;;;;;;5109443;28;20183;-53
2021/04/08 01:05:50;;;;;;;4.97;3.92;;;3.50;99.90;;;;;;5097322;28;20195;-53
2021/04/08 01:08:15;;;;;;;5.00;4.50;;;3.70;99.90;;;;;;5105749;28;20183;-53
2021/04/08 01:10:43;;;;;;;4.33;3.93;;;3.70;99.90;;;;;;5099274;28;20290;-52
2021/04/08 01:13:13;;;;;;;6.13;4.43;;;3.60;99.90;;;;;;5110432;28;20183;-53
2021/04/08 01:15:40;;;;;;;5.22;4.80;;;3.80;99.90;;;;;;5110693;28;20210;-53
2021/04/08 01:18:40;;;;;;;5.60;4.32;;;3.70;99.90;;;;;;5099538;28;20209;-52
2021/04/08 01:21:26;;;;;;;4.78;4.38;;;3.90;99.90;;;;;;5109681;28;20179;-52
2021/04/08 01:23:55;;;;;;;4.68;4.22;;;4.00;99.90;;;;;;5124576;28;20680;-52
2021/04/08 01:26:21;;;;;;;4.78;4.25;;;3.90;99.90;;;;;;5099754;28;20220;-52
2021/04/08 01:28:57;;;;;;;4.93;4.50;;;3.90;99.90;;;;;;5101334;28;20239;-52
2021/04/08 01:31:23;;;;;;;5.10;4.70;;;3.80;99.90;;;;;;5095805;28;20182;-52
2021/04/08 01:33:54;;;;;;;8.02;5.60;;;3.70;99.90;;;;;;5104904;28;20191;-53
2021/04/08 01:36:27;;;;;;;4.80;4.40;;;4.00;99.90;;;;;;5109511;28;20685;-52
2021/04/08 01:38:59;;;;;;;5.40;4.90;;;3.60;99.90;;;;;;5102461;28;20206;-52
2021/04/08 01:41:26;;;;;;;6.82;4.60;;;3.60;99.90;;;;;;5111309;28;20179;-53
2021/04/08 01:43:55;;;;;;;6.57;5.07;;;3.70;99.90;;;;;;5111513;28;20179;-52
2021/04/08 01:46:22;;;;;;;8.27;5.03;;;3.70;99.90;;;;;;5096991;28;20243;-52
2021/04/08 01:48:51;;;;;;;5.70;4.95;;;3.90;99.90;;;;;;5102956;28;20326;-52
2021/04/08 01:51:17;;;;;;;8.18;6.03;;;3.90;99.90;;;;;;5107451;28;20294;-53
2021/04/08 01:53:54;;;;;;;6.70;5.25;;;3.70;99.90;;;;;;5103427;28;20559;-52
2021/04/08 01:56:23;;;;;;;6.10;5.38;;;3.60;99.90;;;;;;5107429;28;20302;-52
2021/04/08 01:58:49;;;;;;;6.03;5.43;;;3.80;99.90;;;;;;5104047;28;20693;-52
2021/04/08 02:01:23;;;;;;;5.85;5.18;;;3.70;99.90;;;;;;5109401;27;20217;-52
2021/04/08 02:03:50;;;;;;;7.57;5.03;;;3.80;99.90;;;;;;5108080;27;20182;-52
2021/04/08 02:06:16;;;;;;;6.07;5.25;;;3.60;99.90;;;;;;5114014;27;20648;-52
2021/04/08 02:08:46;;;;;;;10.45;5.68;;;3.90;99.90;;;;;;5100621;28;20556;-52
2021/04/08 02:11:13;;;;;;;7.63;5.50;;;4.00;99.90;;;;;;5101839;27;20285;-52
2021/04/08 02:13:41;;;;;;;5.07;4.57;;;3.80;99.90;;;;;;5127482;27;20190;-52
2021/04/08 02:16:09;;;;;;;5.00;4.45;;;3.90;99.90;;;;;;5102317;27;20680;-52
2021/04/08 02:18:36;;;;;;;5.05;4.00;;;3.80;99.90;;;;;;5106268;27;20186;-53
2021/04/08 02:21:03;;;;;;;4.38;3.80;;;3.80;99.90;;;;;;5128685;27;20491;-52
2021/04/08 02:23:30;;;;;;;3.67;3.38;;;3.80;99.90;;;;;;5105207;27;20543;-51
2021/04/08 02:25:57;;;;;;;4.35;3.80;;;3.90;99.90;;;;;;5105769;27;20195;-52
2021/04/08 02:28:26;;;;;;;8.32;3.45;;;4.10;99.90;;;;;;5105013;27;20191;-52
2021/04/08 02:30:53;;;;;;;3.97;3.58;;;4.20;99.90;;;;;;5112955;27;20192;-52
2021/04/08 02:33:24;;;;;;;4.38;3.95;;;3.90;99.90;;;;;;5098314;27;20184;-52
2021/04/08 02:35:50;;;;;;;7.65;3.50;;;3.90;99.90;;;;;;5106894;27;20211;-53
2021/04/08 02:38:21;;;;;;;4.82;3.28;;;4.00;99.90;;;;;;5117805;27;20193;-52
2021/04/08 02:40:47;;;;;;;3.67;3.30;;;4.10;99.90;;;;;;5111178;27;20206;-52
2021/04/08 02:43:13;;;;;;;4.20;3.80;;;4.00;99.90;;;;;;5101735;28;20185;-52
2021/04/08 02:45:39;;;;;;;4.50;4.10;;;4.30;99.90;;;;;;5109503;27;20179;-52
2021/04/08 02:48:13;;;;;;;5.05;3.67;;;4.20;99.90;;;;;;5105303;27;20213;-52
2021/04/08 02:50:41;;;;;;;4.30;3.65;;;3.80;99.90;;;;;;5102503;27;20573;-52
2021/04/08 02:53:06;;;;;;;5.20;3.60;;;3.80;99.90;;;;;;5100010;27;20610;-53
2021/04/08 02:55:40;;;;;;;3.73;2.93;;;3.70;99.90;;;;;;5101561;28;20230;-52
2021/04/08 02:58:09;;;;;;;4.63;3.28;;;4.10;99.90;;;;;;5106626;27;20279;-53
2021/04/08 03:00:42;;;;;;;4.65;3.90;;;4.00;99.90;;;;;;5111499;27;20675;-53
2021/04/08 03:03:09;;;;;;;7.65;4.70;;;4.30;99.90;;;;;;5104899;27;20248;-53
2021/04/08 03:05:40;;;;;;;5.22;4.20;;;4.20;99.90;;;;;;5107290;27;20215;-52
2021/04/08 03:08:12;;;;;;;5.38;3.55;;;4.00;99.90;;;;;;5110848;27;20259;-53
2021/04/08 03:10:40;;;;;;;6.88;3.85;;;4.30;99.90;;;;;;5104741;28;20677;-53
2021/04/08 03:13:09;;;;;;;5.15;3.10;;;4.00;99.90;;;;;;5103900;27;20184;-52
2021/04/08 03:15:36;;;;;;;3.70;3.40;;;4.30;99.90;;;;;;5110249;27;20238;-52
2021/04/08 03:18:07;;;;;;;5.68;3.25;;;4.40;99.90;;;;;;5103613;27;20233;-53
2021/04/08 03:20:34;;;;;;;3.42;3.13;;;4.40;99.90;;;;;;5104758;27;20199;-52
2021/04/08 03:23:02;;;;;;;3.70;2.78;;;4.50;99.90;;;;;;5110199;27;20273;-52
2021/04/08 03:25:32;;;;;;;4.15;3.00;;;4.40;99.90;;;;;;5115547;27;20225;-52
2021/04/08 03:27:58;;;;;;;4.07;3.53;;;4.40;99.90;;;;;;5099727;28;20188;-52
2021/04/08 03:30:24;;;;;;;3.38;3.08;;;4.10;99.90;;;;;;5105933;27;20210;-52
2021/04/08 03:32:50;;;;;;;4.28;3.25;;;4.40;99.90;;;;;;5106554;27;20608;-52
2021/04/08 03:35:17;;;;;;;4.35;3.35;;;4.20;99.90;;;;;;5103304;27;20282;-52
2021/04/08 03:37:43;;;;;;;3.10;2.80;;;4.20;99.90;;;;;;5108569;28;20199;-52
2021/04/08 03:40:10;;;;;;;4.87;2.70;;;4.20;99.90;;;;;;5104007;28;20199;-52
2021/04/08 03:42:36;;;;;;;3.17;2.97;;;4.40;99.90;;;;;;5109306;27;20451;-52
2021/04/08 03:45:03;;;;;;;6.35;3.20;;;4.20;99.90;;;;;;5100608;28;20191;-52
2021/04/08 03:47:30;;;;;;;3.42;3.13;;;4.20;99.90;;;;;;5109680;27;20656;-52
2021/04/08 03:49:57;;;;;;;3.03;2.83;;;4.20;99.90;;;;;;5111765;27;20210;-52
2021/04/08 03:52:24;;;;;;;3.63;3.28;;;4.40;99.90;;;;;;5103581;27;20195;-53
2021/04/08 03:54:51;;;;;;;3.40;2.80;;;4.10;99.90;;;;;;5100913;27;20203;-52
2021/04/08 03:57:18;;;;;;;4.22;3.05;;;4.40;99.90;;;;;;5102903;27;20270;-52
2021/04/08 03:59:45;;;;;;;3.10;2.65;;;4.40;99.90;;;;;;5103811;28;20197;-52
2021/04/08 04:02:15;;;;;;;5.63;2.90;;;4.10;99.90;;;;;;5106027;27;20194;-53
2021/04/08 04:04:42;;;;;;;3.97;2.65;;;4.10;99.90;;;;;;5095014;27;20176;-52
2021/04/08 04:07:09;;;;;;;5.03;3.10;;;4.20;99.90;;;;;;5099770;28;20494;-52
2021/04/08 04:09:36;;;;;;;6.28;3.45;;;4.00;99.90;;;;;;5100982;27;20559;-51
2021/04/08 04:12:02;;;;;;;3.10;2.67;;;3.90;99.90;;;;;;5103519;27;20183;-52
2021/04/08 04:14:29;;;;;;;5.13;3.60;;;4.00;99.90;;;;;;5107053;27;20231;-52
2021/04/08 04:16:56;;;;;;;5.25;2.97;;;3.70;99.90;;;;;;5106968;27;20199;-52
2021/04/08 04:19:26;;;;;;;4.32;3.00;;;3.80;99.90;;;;;;5101825;28;20211;-52
2021/04/08 04:21:52;;;;;;;3.30;2.97;;;3.90;99.90;;;;;;5102341;27;20285;-52
2021/04/08 04:24:18;;;;;;;3.30;3.00;;;4.20;99.90;;;;;;5103337;27;20175;-52
2021/04/08 04:26:44;;;;;;;4.60;3.93;;;4.00;99.90;;;;;;5129317;27;20324;-52
2021/04/08 04:29:11;;;;;;;6.17;3.90;;;4.10;99.90;;;;;;5107996;28;20205;-52
2021/04/08 04:31:38;;;;;;;4.50;3.45;;;4.10;99.90;;;;;;5103294;27;20228;-52
2021/04/08 04:34:05;;;;;;;3.90;3.55;;;4.00;99.90;;;;;;5111128;27;20187;-52
2021/04/08 04:36:32;;;;;;;6.43;3.33;;;4.10;99.90;;;;;;5099511;27;20210;-52
2021/04/08 04:38:58;;;;;;;3.88;3.20;;;4.00;99.90;;;;;;5093726;27;20200;-53
2021/04/08 04:41:23;;;;;;;4.43;3.20;;;3.80;99.90;;;;;;5106169;27;20204;-52
2021/04/08 04:43:49;;;;;;;4.70;3.27;;;3.70;99.90;;;;;;5105107;28;20236;-52
2021/04/08 04:46:15;;;;;;;4.73;3.97;;;3.60;99.90;;;;;;5109523;27;20494;-52
2021/04/08 04:48:41;;;;;;;7.00;3.47;;;3.60;99.90;;;;;;5111325;27;20191;-52
2021/04/08 04:51:06;;;;;;;4.03;3.53;;;3.60;99.90;;;;;;5099742;27;20509;-52
2021/04/08 04:53:32;;;;;;;6.80;3.23;;;3.90;99.90;;;;;;5098575;28;20194;-52
2021/04/08 04:55:59;;;;;;;3.50;3.00;;;3.70;99.90;;;;;;5105179;28;20467;-52
2021/04/08 04:58:24;;;;;;;4.32;3.00;;;3.60;99.90;;;;;;5097781;28;20283;-52
2021/04/08 05:00:50;;;;;;;4.97;4.03;;;4.00;99.90;;;;;;5108255;28;20278;-52
2021/04/08 05:03:16;;;;;;;4.13;3.20;;;3.50;99.90;;;;;;5103267;28;20186;-53
2021/04/08 05:05:41;;;;;;;4.90;3.53;;;3.60;99.90;;;;;;5098214;28;20194;-53
2021/04/08 05:08:07;;;;;;;5.23;3.70;;;3.60;99.90;;;;;;5097549;28;20223;-53
2021/04/08 05:10:33;;;;;;;6.43;4.10;;;3.80;99.90;;;;;;5102913;28;20754;-53
2021/04/08 05:12:59;;;;;;;8.30;4.15;;;3.90;99.90;;;;;;5089987;28;20230;-53
2021/04/08 05:15:25;;;;;;;5.33;4.13;;;3.80;99.90;;;;;;5105986;28;20265;-52
2021/04/08 05:17:50;;;;;;;7.27;3.60;;;4.00;99.90;;;;;;5107255;28;20205;-53
2021/04/08 05:20:16;;;;;;;4.00;3.70;;;3.90;99.90;;;;;;5108938;28;20190;-52
2021/04/08 05:22:42;;;;;;;6.40;3.80;;;3.80;99.90;;;;;;5122346;28;20643;-51
2021/04/08 05:25:08;;;;;;;4.03;3.40;;;3.20;99.90;;;;;;5098796;28;20198;-52
2021/04/08 05:27:33;;;;;;;4.00;3.28;;;3.70;99.90;;;;;;5100779;28;20274;-52
2021/04/08 05:30:00;;;;;;;5.20;3.88;;;4.10;99.90;;;;;;5091856;28;20317;-51
2021/04/08 05:32:27;;;;;;;4.05;3.50;;;4.00;99.90;;;;;;5104352;28;20194;-52
2021/04/08 05:34:52;;;;;;;5.93;4.20;;;3.90;99.90;;;;;;5122151;27;20582;-52
2021/04/08 05:37:18;;;;;;;6.00;4.13;;;4.10;99.90;;;;;;5104041;27;20188;-51
2021/04/08 05:39:44;;;;;;;6.47;4.17;;;4.00;99.90;;;;;;5104741;27;20732;-52
2021/04/08 05:42:10;;;;;;;5.00;4.10;;;4.10;99.90;;;;;;5128219;27;20817;-50
2021/04/08 05:44:36;;;;;;;7.83;3.80;;;4.40;99.90;;;;;;5091984;27;20961;-51
2021/04/08 05:47:01;;;;;;;4.47;4.07;;;4.20;99.90;;;;;;5103789;27;20633;-51
2021/04/08 05:49:27;;;;;;;4.40;3.83;;;4.60;99.90;;;;;;5104375;27;20207;-51
2021/04/08 05:51:53;;;;;;;4.07;3.67;;;4.40;99.90;;;;;;5110456;27;20489;-53
2021/04/08 05:54:18;;;;;;;5.93;3.40;;;4.30;99.90;;;;;;5107627;27;20183;-52
2021/04/08 05:56:44;;;;;;;4.90;3.83;;;4.20;99.90;;;;;;5106632;27;20298;-54
2021/04/08 05:59:10;;;;;;;5.33;4.13;;;4.20;99.90;;;;;;5106122;27;20199;-54
2021/04/08 06:01:35;;;;;;;3.57;3.30;;;4.50;99.90;;;;;;5103654;27;20175;-54
2021/04/08 06:04:01;;;;;;;8.33;3.07;;;4.60;99.90;;;;;;5104469;27;20183;-52
2021/04/08 06:06:27;;;;;;;4.70;3.73;;;5.30;99.90;;;;;;5103619;27;20602;-54
2021/04/08 06:08:52;;;;;;;4.97;3.50;;;5.20;99.90;;;;;;5101496;27;20467;-55
2021/04/08 06:11:21;;;;;;;5.53;3.70;;;5.10;98.90;;;;;;5102348;27;20653;-56
2021/04/08 06:13:48;;;;;;;5.40;3.30;;;5.10;97.90;;;;;;5107262;27;20188;-53
2021/04/08 06:16:14;;;;;;;4.65;3.53;;;5.10;97.80;;;;;;5105167;27;20218;-54
2021/04/08 06:18:39;;;;;;;4.50;3.40;;;5.20;97.90;;;;;;5101361;27;20183;-53
2021/04/08 06:21:05;;;;;;;4.37;3.37;;;5.40;97.70;;;;;;5102649;27;20646;-54
2021/04/08 06:23:31;;;;;;;7.37;4.40;;;5.10;97.80;;;;;;5101226;27;20183;-59
2021/04/08 06:25:57;;;;;;;4.13;3.53;;;5.40;97.30;;;;;;5125013;27;20182;-56
2021/04/08 06:28:24;;;;;;;7.68;4.10;;;5.40;96.90;;;;;;5103298;28;20212;-58
2021/04/08 06:30:55;;;;;;;3.80;3.50;;;5.40;96.90;;;;;;5127231;27;20188;-55
2021/04/08 06:33:21;;;;;;;3.13;2.83;;;5.70;96.80;;;;;;5116461;27;20189;-58
2021/04/08 06:35:47;;;;;;;3.47;3.03;;;5.60;95.70;;;;;;5099999;28;20195;-53
2021/04/08 06:38:12;;;;;;;8.10;4.23;;;5.60;95.30;;;;;;5109590;27;21037;-52
2021/04/08 06:40:38;;;;;;;4.03;3.40;;;5.90;95.50;;;;;;5113332;27;20197;-53
2021/04/08 06:43:04;;;;;;;5.00;3.27;;;6.20;94.80;;;;;;5104578;28;20188;-54
2021/04/08 06:45:32;;;;;;;8.45;3.75;;;6.20;93.90;;;;;;5103283;28;20253;-53
2021/04/08 06:48:11;;;;;;;6.75;4.18;;;6.30;93.50;;;;;;5105801;27;20187;-52
2021/04/08 06:50:40;;;;;;;6.30;4.28;;;6.30;92.80;;;;;;5110538;27;20276;-51
2021/04/08 06:53:07;;;;;;;5.88;4.25;;;6.20;92.40;;;;;;5106848;27;20195;-51
2021/04/08 06:55:34;;;;;;;5.55;4.25;;;6.40;91.60;;;;;;5111045;27;20646;-50
2021/04/08 06:58:03;;;;;;;6.45;4.85;;;6.60;90.60;;;;;;5103224;27;20317;-51
2021/04/08 07:00:29;;;;;;;6.60;4.60;;;6.80;89.70;;;;;;5120885;27;20199;-53
2021/04/08 07:02:57;;;;;;;6.03;4.90;;;7.10;87.70;;;;;;5103301;28;20194;-52
2021/04/08 07:05:23;;;;;;;4.65;4.20;;;7.50;87.70;;;;;;5106027;27;20451;-53
2021/04/08 07:07:48;;;;;;;10.10;5.10;;;7.80;85.30;;;;;;5100605;27;20187;-51
2021/04/08 07:10:14;;;;;;;5.77;4.77;;;8.30;83.10;;;;;;5107619;27;20210;-52
2021/04/08 07:12:40;;;;;;;7.10;5.00;;;8.40;79.30;;;;;;5106622;28;20202;-52
2021/04/08 07:15:07;;;;;;;6.53;5.00;;;8.10;78.10;;;;;;5094685;27;20587;-51
2021/04/08 07:17:33;;;;;;;6.60;5.65;;;7.80;77.60;;;;;;5101637;27;20468;-53
2021/04/08 07:19:58;;;;;;;10.60;6.63;;;7.90;77.40;;;;;;5112478;27;20202;-53
2021/04/08 07:22:25;;;;;;;5.43;4.90;;;7.20;77.20;;;;;;5103209;28;20179;-54
2021/04/08 07:24:52;;;;;;;11.10;5.78;;;7.10;78.90;;;;;;5098823;27;20171;-53
2021/04/08 07:27:23;;;;;;;5.63;5.13;;;7.40;80.40;;;;;;5108402;27;20243;-55
2021/04/08 07:29:56;;;;;;;7.53;6.30;;;7.20;81.10;;;;;;5100698;28;20255;-53
2021/04/08 07:32:26;;;;;;;7.43;5.72;;;7.50;80.30;;;;;;5095416;27;20203;-53
2021/04/08 07:34:55;;;;;;;7.60;5.70;;;8.30;77.40;;;;;;5102017;27;20183;-52
2021/04/08 07:37:35;;;;;;;9.43;5.95;;;9.50;74.10;;;;;;5110854;27;20177;-51
2021/04/08 07:40:22;;;;;;;6.82;4.55;;;9.80;71.20;;;;;;5106010;27;20579;-53
2021/04/08 07:42:48;;;;;;;6.25;4.70;;;10.70;68.60;;;;;;5102282;27;20555;-53
2021/04/08 07:45:27;;;;;;;10.17;5.60;;;11.50;66.50;;;;;;5103629;27;20187;-53
2021/04/08 07:48:04;;;;;;;6.30;4.97;;;12.20;61.70;;;;;;5107734;28;20523;-52
2021/04/08 07:50:32;;;;;;;5.70;5.10;;;11.70;60.40;;;;;;5105225;27;20206;-53
2021/04/08 07:52:58;;;;;;;7.80;5.57;;;12.10;60.00;;;;;;5099837;27;20190;-52
2021/04/08 07:55:30;;;;;;;5.50;5.00;;;11.60;60.30;;;;;;5107420;27;20200;-52
2021/04/08 07:57:55;;;;;;;6.15;5.57;;;11.40;59.60;;;;;;5122287;27;20268;-51
2021/04/08 08:00:52;;;;;;;8.70;6.27;;;10.70;60.80;;;;;;5103469;27;20317;-51
2021/04/08 08:03:25;;;;;;;9.07;5.97;;;10.90;62.00;;;;;;5074873;27;20717;-51
2021/04/08 08:05:52;;;;;;;5.47;4.97;;;10.60;62.00;;;;;;5102972;27;20222;-51
2021/04/08 08:08:22;;;;;;;5.85;5.32;;;11.20;59.90;;;;;;5098333;27;20188;-52
2021/04/08 08:10:58;;;;;;;8.10;5.70;;;10.40;58.70;;;;;;5107170;27;20205;-51
2021/04/08 08:13:31;;;;;;;6.18;4.95;;;11.10;60.10;;;;;;5105751;27;20220;-53
2021/04/08 08:15:58;;;;;;;4.70;4.30;;;11.30;58.00;;;;;;5099156;28;20224;-54
2021/04/08 08:18:37;;;;;;;4.78;4.38;;;11.30;57.50;;;;;;5100439;27;20177;-54
2021/04/08 08:21:05;;;;;;;5.28;4.30;;;11.50;57.60;;;;;;5119372;27;20183;-51
2021/04/08 08:23:47;;;;;;;6.03;4.40;;;11.50;57.10;;;;;;5108251;27;20272;-51
2021/04/08 08:26:23;;;;;;;6.38;4.57;;;11.40;57.80;;;;;;5103783;27;20430;-50
2021/04/08 08:28:49;;;;;;;5.30;4.75;;;11.00;57.50;;;;;;5105957;27;20208;-51
2021/04/08 08:31:35;;;;;;;8.40;4.80;;;10.60;58.60;;;;;;5103788;27;20187;-52
2021/04/08 08:34:06;;;;;;;4.70;4.10;;;11.20;59.40;;;;;;5125338;27;20661;-54
2021/04/08 08:36:32;;;;;;;11.05;4.55;;;11.00;57.50;;;;;;5102779;27;20306;-55
2021/04/08 08:39:04;;;;;;;4.93;4.00;;;11.10;60.60;;;;;;5098913;28;20207;-51
2021/04/08 08:41:30;;;;;;;4.05;3.72;;;11.40;56.60;;;;;;5097833;28;20185;-53
2021/04/08 08:43:57;;;;;;;8.30;4.40;;;11.70;55.40;;;;;;5104210;27;20181;-52
2021/04/08 08:46:25;;;;;;;5.13;4.30;;;11.30;55.00;;;;;;5103514;27;20185;-51
2021/04/08 08:48:52;;;;;;;4.32;4.00;;;11.20;55.80;;;;;;5102993;28;20262;-51
2021/04/08 08:51:18;;;;;;;6.32;5.50;;;12.30;54.30;;;;;;5107505;27;20300;-52
2021/04/08 08:53:44;;;;;;;4.18;3.67;;;12.10;53.60;;;;;;5122927;27;20182;-51
2021/04/08 08:56:09;;;;;;;4.20;3.80;;;12.10;52.80;;;;;;5099673;28;20245;-53
2021/04/08 08:58:36;;;;;;;5.60;4.10;;;11.90;52.90;;;;;;5104288;28;20756;-53
2021/04/08 09:01:02;;;;;;;4.63;4.15;;;11.20;54.60;;;;;;5104079;28;20574;-53
2021/04/08 09:03:28;;;;;;;6.90;4.10;;;12.50;55.30;;;;;;5102864;28;21024;-53
2021/04/08 09:05:55;;;;;;;5.37;3.83;;;13.10;52.40;;;;;;5096794;28;20310;-54
2021/04/08 09:08:27;;;;;;;5.38;3.97;;;14.20;48.90;;;;;;5106914;28;20939;-53
2021/04/08 09:10:53;;;;;;;4.78;4.22;;;14.90;47.30;;;;;;5110745;27;20774;-54
2021/04/08 09:13:19;;;;;;;5.35;3.88;;;15.80;46.00;;;;;;5110465;27;20178;-54
2021/04/08 09:15:46;;;;;;;4.40;4.10;;;15.40;45.80;;;;;;5108788;27;20217;-54
2021/04/08 09:18:13;;;;;;;4.28;3.88;;;16.30;44.00;;;;;;5113914;27;20218;-53
2021/04/08 09:20:40;;;;;;;5.10;4.60;;;16.40;43.70;;;;;;5103577;27;20214;-54
2021/04/08 09:23:13;;;;;;;4.93;4.30;;;15.90;44.00;;;;;;5099545;28;20179;-53
2021/04/08 09:26:01;;;;;;;5.05;4.03;;;14.50;44.60;;;;;;5105074;28;20319;-53
2021/04/08 09:28:36;;;;;;;6.53;3.80;;;12.80;45.70;;;;;;5107657;27;20356;-53
2021/04/08 09:33:40;;;;;;;6.70;4.13;;;11.60;49.40;;;;;;5124715;27;20196;-51
2021/04/08 09:36:21;;;;;;;4.32;3.47;;;11.00;51.10;;;;;;5105964;28;20271;-54
2021/04/08 09:38:56;;;;;;;5.95;3.28;;;11.30;51.00;;;;;;5105610;27;20436;-51
2021/04/08 09:41:40;;;;;;;3.72;3.42;;;10.80;50.10;;;;;;5125014;27;20186;-53
2021/04/08 09:44:08;;;;;;;4.55;3.95;;;10.60;50.90;;;;;;5101334;27;20176;-52
2021/04/08 09:46:39;;;;;;;5.32;4.32;;;10.10;51.40;;;;;;5100837;28;20188;-52
2021/04/08 09:49:05;;;;;;;5.35;3.72;;;9.90;53.80;;;;;;5104098;27;20199;-51
2021/04/08 09:51:41;;;;;;;3.83;3.43;;;9.90;54.90;;;;;;5108356;27;20596;-50
2021/04/08 09:54:42;;;;;;;4.57;3.90;;;9.50;54.30;;;;;;5098880;28;20198;-51
2021/04/08 09:57:10;;;;;;;5.60;3.40;;;9.50;54.10;;;;;;5105003;28;20274;-51
2021/04/08 09:59:57;;;;;;;5.15;3.72;;;9.20;55.20;;;;;;5101883;27;20210;-51
2021/04/08 10:02:25;;;;;;;4.35;3.53;;;9.00;55.80;;;;;;5109923;27;20206;-51
2021/04/08 10:05:08;;;;;;;4.40;3.70;;;9.20;56.00;;;;;;5107141;28;20182;-51
2021/04/08 10:07:48;;;;;;;3.60;3.30;;;9.30;57.00;;;;;;5104562;27;20219;-51
2021/04/08 10:10:14;;;;;;;3.92;3.30;;;9.80;56.60;;;;;;5103998;27;20671;-52
2021/04/08 10:12:40;;;;;;;6.43;3.90;;;10.10;54.50;;;;;;5103378;27;20191;-51
2021/04/08 10:15:06;;;;;;;3.60;3.30;;;10.00;53.10;;;;;;5105288;27;20488;-51
2021/04/08 10:17:38;;;;;;;4.93;3.42;;;10.00;53.70;;;;;;5128830;27;20188;-51
2021/04/08 10:20:06;;;;;;;4.50;3.35;;;10.20;54.30;;;;;;5105609;27;20211;-51
2021/04/08 10:22:43;;;;;;;3.65;3.35;;;9.80;54.00;;;;;;5112210;27;20175;-51
2021/04/08 10:25:11;;;;;;;4.35;3.70;;;10.00;53.30;;;;;;5106957;27;20308;-51
2021/04/08 10:27:37;;;;;;;7.18;3.67;;;10.30;54.70;;;;;;5099263;27;20232;-51
2021/04/08 10:30:15;;;;;;;4.35;3.50;;;10.30;54.90;;;;;;5110747;27;20673;-52
2021/04/08 10:32:43;;;;;;;3.97;3.40;;;10.60;54.20;;;;;;5104426;28;20520;-49
2021/04/08 10:35:29;;;;;;;6.68;3.58;;;10.10;53.40;;;;;;5108361;27;20582;-52
2021/04/08 10:38:05;;;;;;;4.95;4.38;;;10.30;53.90;;;;;;5106399;27;20185;-51
2021/04/08 10:40:32;;;;;;;4.80;4.38;;;10.50;54.40;;;;;;5104035;27;20194;-53
2021/04/08 10:43:11;;;;;;;4.18;3.50;;;10.70;53.90;;;;;;5104369;27;20188;-52
2021/04/08 10:45:37;;;;;;;3.92;3.53;;;10.40;52.70;;;;;;5095228;27;20217;-52
2021/04/08 10:48:06;;;;;;;5.15;3.35;;;10.90;53.10;;;;;;5105294;27;20658;-52
2021/04/08 10:50:32;;;;;;;4.40;4.00;;;11.20;52.20;;;;;;5110379;27;20225;-53
2021/04/08 10:53:00;;;;;;;7.53;4.90;;;10.80;52.10;;;;;;5102023;27;20675;-54
2021/04/08 10:55:26;;;;;;;4.47;3.72;;;11.00;52.60;;;;;;5111466;27;20211;-53
2021/04/08 10:57:53;;;;;;;5.45;4.80;;;10.80;52.40;;;;;;5105222;27;20215;-53
2021/04/08 11:00:19;;;;;;;5.25;4.75;;;10.50;52.40;;;;;;5102333;27;20286;-52
2021/04/08 11:02:46;;;;;;;5.18;4.63;;;10.60;53.50;;;;;;5100790;27;20186;-52
2021/04/08 11:05:24;;;;;;;6.50;4.75;;;10.70;53.30;;;;;;5103949;27;20240;-52
2021/04/08 11:07:54;;;;;;;9.07;5.97;;;10.50;53.60;;;;;;5128899;27;20187;-55
2021/04/08 11:10:22;;;;;;;5.00;4.30;;;10.40;53.40;;;;;;5110329;27;20526;-56
2021/04/08 11:12:52;;;;;;;5.47;4.10;;;10.40;53.00;;;;;;5103669;27;20180;-53
2021/04/08 11:15:24;;;;;;;7.07;3.55;;;10.40;52.10;;;;;;5103882;27;20247;-52
2021/04/08 11:17:53;;;;;;;4.30;3.90;;;10.30;52.10;;;;;;5105669;27;20636;-50
2021/04/08 11:20:34;;;;;;;8.90;6.57;;;10.50;52.10;;;;;;5107177;27;20195;-52
2021/04/08 11:23:00;;;;;;;4.47;4.07;;;10.40;52.00;;;;;;5104651;27;20191;-56
2021/04/08 11:25:28;;;;;;;4.93;3.60;;;10.70;52.60;;;;;;5103584;27;20183;-55
2021/04/08 11:27:59;;;;;;;3.53;3.22;;;10.80;51.90;;;;;;5103627;27;20199;-56
2021/04/08 11:30:45;;;;;;;3.47;3.15;;;10.60;51.60;;;;;;5109593;27;20207;-55
2021/04/08 11:33:19;;;;;;;6.88;3.95;;;10.50;50.80;;;;;;5101715;27;20264;-53
2021/04/08 11:35:45;;;;;;;7.28;3.53;;;10.60;50.50;;;;;;5104626;27;20236;-53
2021/04/08 11:38:16;;;;;;;4.40;3.55;;;10.60;50.10;;;;;;5099232;27;20185;-53
2021/04/08 11:41:01;;;;;;;4.00;3.65;;;10.90;51.00;;;;;;5106164;27;20195;-52
2021/04/08 11:43:32;;;;;;;3.42;3.13;;;11.20;51.00;;;;;;5101929;27;20185;-53
2021/04/08 11:46:03;;;;;;;5.65;3.83;;;11.20;50.30;;;;;;5102678;27;20224;-53
2021/04/08 11:48:40;;;;;;;4.75;3.63;;;11.50;50.10;;;;;;5103913;27;20189;-53
2021/04/08 11:51:07;;;;;;;4.50;3.63;;;10.90;49.60;;;;;;5102905;27;20226;-54
2021/04/08 11:53:35;;;;;;;5.90;3.38;;;10.60;50.00;;;;;;5100726;28;20179;-54
2021/04/08 11:56:01;;;;;;;4.13;3.70;;;10.80;51.50;;;;;;5100688;27;20737;-54
2021/04/08 11:58:30;;;;;;;3.87;3.17;;;10.30;50.30;;;;;;5105517;27;20184;-54
2021/04/08 12:01:13;;;;;;;3.40;3.10;;;10.60;50.80;;;;;;5100864;27;20793;-52
2021/04/08 12:03:50;;;;;;;6.53;3.75;;;11.00;50.50;;;;;;5098326;28;20181;-54
2021/04/08 12:06:16;;;;;;;7.57;3.42;;;11.20;50.00;;;;;;5095849;27;20180;-53
2021/04/08 12:08:53;;;;;;;6.25;2.88;;;11.30;49.30;;;;;;5102582;27;20187;-55
2021/04/08 12:11:20;;;;;;;4.05;3.10;;;11.00;48.40;;;;;;5107116;27;20184;-55
2021/04/08 12:14:03;;;;;;;4.68;3.38;;;11.60;49.60;;;;;;5096629;27;20431;-54
2021/04/08 12:16:29;;;;;;;3.28;2.63;;;11.90;48.00;;;;;;5098732;27;20208;-54
2021/04/08 12:18:56;;;;;;;3.57;2.63;;;12.10;48.10;;;;;;5095718;27;20209;-53
2021/04/08 12:21:24;;;;;;;5.30;3.80;;;11.80;47.10;;;;;;5124303;27;20181;-54
2021/04/08 12:23:54;;;;;;;4.70;3.30;;;11.20;47.80;;;;;;5100799;27;20879;-58
2021/04/08 12:26:33;;;;;;;5.40;3.20;;;11.80;47.90;;;;;;5100738;27;20180;-57
2021/04/08 12:28:59;;;;;;;3.55;3.00;;;11.40;48.80;;;;;;5103554;27;20240;-58
2021/04/08 12:31:24;;;;;;;3.03;2.60;;;11.40;48.90;;;;;;5100244;27;20614;-57
2021/04/08 12:33:50;;;;;;;4.38;2.95;;;11.40;49.30;;;;;;5105411;27;20429;-57
2021/04/08 12:36:16;;;;;;;2.93;2.57;;;10.80;50.20;;;;;;5099796;27;20208;-58
2021/04/08 12:38:41;;;;;;;5.87;3.60;;;11.00;50.90;;;;;;5104336;27;20478;-56
2021/04/08 12:41:08;;;;;;;4.03;2.80;;;11.00;51.60;;;;;;5100891;27;20955;-57
2021/04/08 12:43:34;;;;;;;5.07;2.70;;;10.90;50.50;;;;;;5096564;27;20175;-56
2021/04/08 12:46:01;;;;;;;8.77;3.25;;;10.90;50.10;;;;;;5102638;27;20184;-56
2021/04/08 12:48:27;;;;;;;4.40;2.83;;;10.90;50.60;;;;;;5109454;28;20188;-55
2021/04/08 12:50:55;;;;;;;7.22;3.60;;;10.90;50.60;;;;;;5103402;27;20735;-57
2021/04/08 12:53:24;;;;;;;4.20;2.88;;;11.10;51.20;;;;;;5098661;28;20619;-54
2021/04/08 12:55:51;;;;;;;5.07;3.17;;;10.80;50.50;;;;;;5101271;27;20267;-54
2021/04/08 12:58:17;;;;;;;3.42;2.72;;;10.90;51.70;;;;;;5098854;28;20232;-56
2021/04/08 13:00:43;;;;;;;3.50;3.03;;;11.20;50.30;;;;;;5096473;28;20435;-55
2021/04/08 13:03:10;;;;;;;2.90;2.50;;;11.20;50.10;;;;;;5103077;28;20224;-55